• Join FlightAware (Why Join?)
  • Login
  • US Flag 
05:41AM EDT


 

Airport Tracker/Info


-or-


 

Live Flight TrackerFlight Track Log ✈ AAY807 ✈ 28-Apr-2014 ✈ KSGF - KPIE

Flight Track Log - Related Links

Times and Time Zones

All times are in EDT time to prevent confusion due to time zone crossing. See the AAY807 flight status page for this flight to view local times or setup timezone preferences in your user account.

Time Position Orientation Groundspeed Altitude Reporting Facility
EDT Latitude Longitude Course Direction KTS MPH feet Rate Location/Type
07:59PM 37.3094 -93.3692 133° Southeast 229 264 4,700  Level Memphis Center
08:00PM 37.2803 -93.2708 110° East 303 349 7,000 2,580 Climbing Memphis Center
08:01PM 37.2453 -93.1756 115° Southeast 301 346 9,900 2,280 Climbing Kansas City Center
08:02PM 37.1886 -93.0839 128° Southeast 316 364 11,600 1,620 Climbing Kansas City Center
08:03PM 37.1172 -92.9825 131° Southeast 360 414 13,300 2,400 Climbing Kansas City Center
08:04PM 37.2630 -93.3708 39° Northeast  Level FlightAware Approximate
08:05PM 37.3069 -93.2759 133° Southeast  Level FlightAware Approximate
08:05PM 37.0314 -92.8472 128° Southeast 401 461 16,600  Level Kansas City Center
08:06PM 36.9561 -92.7336 130° Southeast 413 475 19,300 2,220 Climbing Kansas City Center
08:07PM 36.8794 -92.6214 130° Southeast 418 481 21,200 1,740 Climbing Kansas City Center
08:08PM 36.8008 -92.5056 130° Southeast 429 494 22,900 1,200 Climbing Kansas City Center
08:09PM 36.7219 -92.3914 131° Southeast 431 496 23,700 1,200 Climbing Kansas City Center
08:10PM 36.6406 -92.2772 132° Southeast 435 501 25,400 1,560 Climbing Memphis Center
08:11PM 36.5639 -92.1606 129° Southeast 437 503 27,000 780 Climbing Memphis Center
08:12PM 36.4861 -92.0469 130° Southeast 435 501 27,000 480 Level Memphis Center
08:13PM 36.4008 -91.9253 131° Southeast 435 501 28,100 960 Climbing Memphis Center
08:14PM 36.3206 -91.8083 130° Southeast 439 505 29,000 780 Climbing Memphis Center
08:15PM 36.2392 -91.6906 131° Southeast 440 506 29,700 960 Climbing Memphis Center
08:16PM 36.1564 -91.5742 131° Southeast 445 512 31,000 1,080 Climbing Memphis Center
08:17PM 36.0747 -91.4589 131° Southeast 445 512 32,000 780 Climbing Memphis Center
08:18PM 35.9947 -91.3444 131° Southeast 445 512 32,700 480 Climbing Memphis Center
08:19PM 35.8953 -91.2047 131° Southeast 446 513 33,000 120 Climbing Memphis Center
08:20PM 35.8139 -91.0886 131° Southeast 446 513 33,000  Level Memphis Center
08:21PM 35.7350 -90.9764 131° Southeast 444 511 33,000  Level Memphis Center
08:22PM 35.6631 -90.8794 132° Southeast 441 507 33,000  Level Memphis Center
08:23PM 35.5650 -90.7428 131° Southeast 441 507 33,000  Level Memphis Center
08:24PM 35.4856 -90.6297 131° Southeast 441 507 33,000  Level Memphis Center
08:25PM 35.4033 -90.5167 132° Southeast 442 509 33,000  Level Memphis Center
08:26PM 35.3197 -90.4022 132° Southeast 446 513 33,000  Level Memphis Center
08:27PM 35.2369 -90.2853 131° Southeast 450 518 33,000  Level Memphis Center
08:28PM 35.1556 -90.1736 132° Southeast 448 516 33,000  Level Memphis Center
08:29PM 35.0706 -90.0611 133° Southeast 446 513 33,000  Level Memphis Center
08:30PM 34.9864 -89.9447 131° Southeast 455 524 33,000  Level Memphis Center
08:31PM 34.8931 -89.8125 131° Southeast 457 526 33,000  Level Memphis Center
08:32PM 34.8144 -89.6961 129° Southeast 456 525 33,000  Level Memphis Center
08:33PM 34.7761 -89.5406 107° East 490 564 33,000  Level Memphis Center
08:34PM 34.7483 -89.3800 102° East 492 566 33,000  Level Memphis Center
08:35PM 34.7258 -89.2172 100° East 492 566 33,000  Level Memphis Center
08:36PM 34.7047 -89.0558 99° East 488 562 33,000  Level Memphis Center
08:37PM 34.6856 -88.8958 98° East 484 557 33,000  Level Memphis Center
08:38PM 34.6667 -88.7356 98° East 483 556 33,000  Level Memphis Center
08:39PM 34.6419 -88.5433 99° East 483 556 33,000  Level Memphis Center
08:40PM 34.6247 -88.3978 98° East 483 556 33,000  Level Memphis Center
08:41PM 34.6086 -88.2400 97° East 477 549 33,000 -420 Level Memphis Center
08:42PM 34.5908 -88.0839 98° East 473 544 32,200 -900 Descending Memphis Center
08:43PM 34.5694 -87.9281 99° East 472 543 31,200 -600 Descending Memphis Center
08:44PM 34.5128 -87.7703 114° Southeast 464 534 31,000 -120 Descending Memphis Center
08:45PM 34.4692 -87.6236 110° East 463 533 31,000  Level Memphis Center
08:46PM 34.4178 -87.4803 113° Southeast 464 534 31,000  Level Memphis Center
08:47PM 34.3447 -87.3483 124° Southeast 465 535 31,000 120 Level Memphis Center
08:48PM 34.2708 -87.2186 125° Southeast 465 535 31,300 960 Climbing Memphis Center
08:49PM 34.1950 -87.0911 126° Southeast 465 535 33,000 780 Climbing Memphis Center
08:50PM 34.1186 -86.9775 129° Southeast 453 521 33,000  Level Memphis Center
08:51PM 33.9983 -86.8814 146° Southeast 438 504 33,000  Level Memphis Center
08:52PM 33.8922 -86.8056 149° Southeast 438 504 33,000  Level Memphis Center
08:53PM 33.8269 -86.7594 150° Southeast 441 507 33,000  Level Atlanta Center
08:54PM 33.7242 -86.6789 147° Southeast 446 513 33,000  Level Atlanta Center
08:55PM 33.6172 -86.6006 149° Southeast 441 507 33,000  Level Atlanta Center
08:56PM 33.5147 -86.5203 147° Southeast 441 507 33,000  Level Atlanta Center
08:57PM 33.4075 -86.4428 149° Southeast 446 513 33,000  Level Atlanta Center
08:58PM 33.3028 -86.3603 147° Southeast 446 513 33,000  Level Atlanta Center
08:59PM 33.1917 -86.2753 147° Southeast 456 525 33,000  Level Atlanta Center
09:00PM 33.0825 -86.1933 148° Southeast 462 532 33,000  Level Atlanta Center
09:01PM 32.9753 -86.1139 148° Southeast 464 534 33,000  Level Atlanta Center
09:02PM 32.8639 -86.0369 150° Southeast 464 534 33,000  Level Atlanta Center
09:03PM 32.7503 -85.9531 148° Southeast 469 540 33,000  Level Atlanta Center
09:04PM 32.6369 -85.8667 147° Southeast 474 545 33,000  Level Atlanta Center
09:05PM 32.5253 -85.7856 149° Southeast 474 545 33,000  Level Atlanta Center
09:06PM 32.4117 -85.7044 149° Southeast 474 545 33,000 480 Level Atlanta Center
09:07PM 32.3000 -85.6214 148° Southeast 474 545 34,000 960 Climbing Atlanta Center
09:08PM 32.1906 -85.5383 147° Southeast 474 545 35,000 300 Climbing Atlanta Center
09:10PM 31.9522 -85.3706 149° Southeast 474 545 35,000  Level Jacksonville Center
09:11PM 31.8411 -85.2892 148° Southeast 469 540 35,000  Level Jacksonville Center
09:12PM 31.7319 -85.2106 149° Southeast 464 534 35,000  Level Jacksonville Center
09:13PM 31.6144 -85.1247 148° Southeast 469 540 35,000  Level Jacksonville Center
09:14PM 31.4989 -85.0442 149° Southeast 464 534 35,000  Level Jacksonville Center
09:15PM 31.3897 -84.9661 149° Southeast 464 534 35,000  Level Jacksonville Center
09:16PM 31.2781 -84.8883 149° Southeast 464 534 35,000  Level Jacksonville Center
09:17PM 31.1686 -84.8106 149° Southeast 464 534 35,000  Level Jacksonville Center
09:18PM 31.0572 -84.7308 148° Southeast 464 534 35,000  Level Jacksonville Center
09:19PM 30.9475 -84.6536 149° Southeast 464 534 35,000  Level Jacksonville Center
09:20PM 30.8483 -84.5817 148° Southeast 471 542 35,000  Level Jacksonville Center
09:21PM 30.7428 -84.5047 148° Southeast 465 535 35,000  Level Jacksonville Center
09:22PM 30.6311 -84.4281 149° Southeast 465 535 35,000  Level Jacksonville Center
09:23PM 30.5253 -84.3517 148° Southeast 459 528 35,000  Level Jacksonville Center
09:24PM 30.4114 -84.2800 152° Southeast 459 528 35,000  Level Jacksonville Center
09:25PM 30.3014 -84.2086 151° Southeast 459 528 35,000  Level Jacksonville Center
09:26PM 30.1833 -84.1325 151° Southeast 453 521 35,000  Level Jacksonville Center
09:27PM 30.0711 -84.0567 150° Southeast 453 521 35,000  Level Jacksonville Center
09:28PM 29.9592 -83.9881 152° Southeast 453 521 35,000  Level Jacksonville Center
09:29PM 29.8492 -83.9150 150° Southeast 458 527 35,000  Level Jacksonville Center
09:30PM 29.7369 -83.8444 151° Southeast 458 527 35,000 -60 Level Jacksonville Center
09:31PM 29.6267 -83.7742 151° Southeast 458 527 34,900 -720 Descending Jacksonville Center
09:32PM 29.5125 -83.7017 151° Southeast 458 527 33,600 -1,980 Descending Jacksonville Center
09:33PM 29.4000 -83.6292 151° Southeast 458 527 31,000 -2,640 Descending Jacksonville Center
09:34PM 29.2836 -83.5519 150° Southeast 463 533 28,400 -2,400 Descending Jacksonville Center
09:35PM 29.1669 -83.4775 151° Southeast 475 547 26,300 -1,500 Descending Jacksonville Center
09:36PM 29.0464 -83.4008 151° Southeast 482 555 25,400 -1,500 Descending Jacksonville Center
09:37PM 28.9275 -83.3267 151° Southeast 482 555 23,400 -2,640 Descending Jacksonville Center
09:38PM 28.8111 -83.2503 150° Southeast 482 555 20,200 -2,820 Descending Jacksonville Center
09:41PM 28.5667 -83.1000 152° Southeast 405 466 14,400 -2,340 Descending Tampa TRACON
09:41PM 28.4833 -83.0500 152° Southeast 380 437 12,800 -1,380 Descending Tampa TRACON
09:43PM 28.4000 -83.0000 152° Southeast 319 367 11,700 -1,140 Descending Tampa TRACON
09:44PM 28.3167 -82.9500 152° Southeast 285 328 10,500 -1,560 Descending Tampa TRACON
09:44PM 28.2667 -82.9167 150° Southeast 273 314 8,800 -1,980 Descending Tampa TRACON
09:45PM 28.2000 -82.8667 147° Southeast 266 306 6,800 -2,040 Descending Tampa TRACON
09:46PM 28.1667 -82.8000 120° Southeast 262 302 4,800 -1,680 Descending Tampa TRACON
09:48PM 28.1167 -82.7333 130° Southeast 248 285 3,300 -1,140 Descending Tampa TRACON
09:49PM 28.0667 -82.7167 164° South 175 201 2,500 -780 Descending Tampa TRACON
09:50PM 28.0167 -82.7000 164° South 156 180 1,800 -720 Descending Tampa TRACON
09:50PM 27.9833 -82.7000 180° South 133 153 1,200 -720 Descending Tampa TRACON
09:51PM 27.9500 -82.7000 180° South 128 147 500 -720 Descending Tampa TRACON